sensor_id;sensor_type;location;lat;lon;timestamp;pressure;altitude;pressure_sealevel;temperature;humidity
9281;BME280;4679;47.966;7.958;2023-08-08T06:26:36;97348.25;;;13.46;76.00
9281;BME280;4679;47.966;7.958;2023-08-08T06:28:38;97343.53;;;13.53;75.75
9281;BME280;4679;47.966;7.958;2023-08-08T06:30:40;97344.09;;;13.60;75.61
9281;BME280;4679;47.966;7.958;2023-08-08T06:32:41;97347.31;;;13.62;75.53
9281;BME280;4679;47.966;7.958;2023-08-08T06:34:43;97351.88;;;13.67;75.56
9281;BME280;4679;47.966;7.958;2023-08-08T06:36:45;97350.31;;;13.71;75.38
9281;BME280;4679;47.966;7.958;2023-08-08T06:38:47;97349.81;;;13.74;75.51
9281;BME280;4679;47.966;7.958;2023-08-08T06:40:52;97352.47;;;13.79;75.61
9281;BME280;4679;47.966;7.958;2023-08-08T06:42:55;97347.19;;;13.84;75.67
9281;BME280;4679;47.966;7.958;2023-08-08T06:44:56;97343.75;;;13.94;75.19
9281;BME280;4679;47.966;7.958;2023-08-08T06:46:58;97345.13;;;14.01;75.21
9281;BME280;4679;47.966;7.958;2023-08-08T06:49:00;97339.84;;;14.12;74.86
9281;BME280;4679;47.966;7.958;2023-08-08T06:51:02;97340.69;;;14.22;74.82
9281;BME280;4679;47.966;7.958;2023-08-08T06:53:04;97347.41;;;14.30;74.70
9281;BME280;4679;47.966;7.958;2023-08-08T06:55:07;97344.00;;;14.45;74.52
9281;BME280;4679;47.966;7.958;2023-08-08T06:57:09;97343.50;;;14.58;74.48
9281;BME280;4679;47.966;7.958;2023-08-08T06:59:12;97342.72;;;14.67;74.09
9281;BME280;4679;47.966;7.958;2023-08-08T07:01:13;97345.94;;;14.74;74.25
9281;BME280;4679;47.966;7.958;2023-08-08T07:03:15;97349.44;;;14.85;73.94
9281;BME280;4679;47.966;7.958;2023-08-08T07:05:17;97346.25;;;14.98;73.46
9281;BME280;4679;47.966;7.958;2023-08-08T07:07:18;97348.66;;;15.05;73.77
9281;BME280;4679;47.966;7.958;2023-08-08T07:09:20;97347.84;;;15.14;73.47
9281;BME280;4679;47.966;7.958;2023-08-08T07:11:22;97352.13;;;15.31;72.74
9281;BME280;4679;47.966;7.958;2023-08-08T07:13:25;97358.00;;;15.43;72.97
9281;BME280;4679;47.966;7.958;2023-08-08T07:15:28;97340.63;;;15.51;72.66
9281;BME280;4679;47.966;7.958;2023-08-08T07:17:30;97344.66;;;15.63;71.95
9281;BME280;4679;47.966;7.958;2023-08-08T07:19:32;97344.34;;;15.75;71.85
9281;BME280;4679;47.966;7.958;2023-08-08T07:21:34;97344.09;;;15.76;71.98
9281;BME280;4679;47.966;7.958;2023-08-08T07:23:35;97338.50;;;15.73;71.88
9281;BME280;4679;47.966;7.958;2023-08-08T07:25:37;97342.50;;;15.75;71.61
9281;BME280;4679;47.966;7.958;2023-08-08T07:27:39;97340.63;;;15.81;71.76
9281;BME280;4679;47.966;7.958;2023-08-08T07:29:40;97340.34;;;15.82;72.05
9281;BME280;4679;47.966;7.958;2023-08-08T07:31:42;97331.22;;;15.94;71.71
9281;BME280;4679;47.966;7.958;2023-08-08T07:33:44;97331.16;;;16.09;71.65
9281;BME280;4679;47.966;7.958;2023-08-08T07:35:46;97329.75;;;16.22;70.69
9281;BME280;4679;47.966;7.958;2023-08-08T07:37:47;97316.91;;;16.29;71.20
9281;BME280;4679;47.966;7.958;2023-08-08T07:39:50;97318.19;;;16.36;70.24
9281;BME280;4679;47.966;7.958;2023-08-08T07:41:52;97319.25;;;16.40;70.20
9281;BME280;4679;47.966;7.958;2023-08-08T07:43:54;97325.94;;;16.43;70.60
9281;BME280;4679;47.966;7.958;2023-08-08T07:45:56;97331.75;;;16.55;69.95
9281;BME280;4679;47.966;7.958;2023-08-08T07:47:59;97326.63;;;16.69;69.22
9281;BME280;4679;47.966;7.958;2023-08-08T07:50:01;97334.09;;;16.77;69.11
9281;BME280;4679;47.966;7.958;2023-08-08T07:52:01;97328.41;;;16.83;69.19
9281;BME280;4679;47.966;7.958;2023-08-08T07:54:03;97323.50;;;16.96;68.36
9281;BME280;4679;47.966;7.958;2023-08-08T07:56:08;97327.19;;;17.05;68.37
9281;BME280;4679;47.966;7.958;2023-08-08T07:58:10;97320.94;;;17.14;68.08
9281;BME280;4679;47.966;7.958;2023-08-08T08:00:12;97325.44;;;17.24;68.17
9281;BME280;4679;47.966;7.958;2023-08-08T08:02:14;97333.38;;;17.34;67.93
9281;BME280;4679;47.966;7.958;2023-08-08T08:04:17;97324.97;;;17.46;67.41
9281;BME280;4679;47.966;7.958;2023-08-08T08:06:19;97322.69;;;17.58;67.25
9281;BME280;4679;47.966;7.958;2023-08-08T08:08:20;97327.38;;;17.76;66.64
9281;BME280;4679;47.966;7.958;2023-08-08T08:10:22;97318.91;;;17.88;66.27
9281;BME280;4679;47.966;7.958;2023-08-08T08:12:24;97309.69;;;17.99;65.94
9281;BME280;4679;47.966;7.958;2023-08-08T08:14:26;97312.72;;;18.16;65.74
9281;BME280;4679;47.966;7.958;2023-08-08T08:16:28;97300.91;;;18.36;65.50
9281;BME280;4679;47.966;7.958;2023-08-08T08:18:29;97304.75;;;18.49;65.14
9281;BME280;4679;47.966;7.958;2023-08-08T08:20:33;97300.13;;;18.54;64.65
9281;BME280;4679;47.966;7.958;2023-08-08T08:22:35;97299.41;;;18.68;64.60
9281;BME280;4679;47.966;7.958;2023-08-08T08:24:37;97309.50;;;18.94;64.00
9281;BME280;4679;47.966;7.958;2023-08-08T08:26:38;97308.50;;;19.09;63.60
9281;BME280;4679;47.966;7.958;2023-08-08T08:28:40;97310.78;;;19.16;63.22
9281;BME280;4679;47.966;7.958;2023-08-08T08:30:42;97317.53;;;19.32;63.11
9281;BME280;4679;47.966;7.958;2023-08-08T08:32:44;97315.19;;;19.25;63.06
9281;BME280;4679;47.966;7.958;2023-08-08T08:34:45;97315.56;;;19.38;62.86
9281;BME280;4679;47.966;7.958;2023-08-08T08:36:48;97321.56;;;19.48;62.65
9281;BME280;4679;47.966;7.958;2023-08-08T08:38:50;97310.75;;;19.53;62.41
9281;BME280;4679;47.966;7.958;2023-08-08T08:40:52;97317.22;;;19.33;62.52
9281;BME280;4679;47.966;7.958;2023-08-08T08:42:55;97310.50;;;19.17;63.03
9281;BME280;4679;47.966;7.958;2023-08-08T08:44:58;97317.44;;;19.05;62.88
9281;BME280;4679;47.966;7.958;2023-08-08T08:47:01;97314.88;;;18.94;62.66
9281;BME280;4679;47.966;7.958;2023-08-08T08:49:05;97310.97;;;18.87;62.89
9281;BME280;4679;47.966;7.958;2023-08-08T08:51:08;97307.97;;;19.07;62.43
9281;BME280;4679;47.966;7.958;2023-08-08T08:53:12;97310.97;;;19.38;61.49
9281;BME280;4679;47.966;7.958;2023-08-08T08:55:14;97313.47;;;19.48;61.18
9281;BME280;4679;47.966;7.958;2023-08-08T08:57:16;97307.78;;;19.69;60.77
9281;BME280;4679;47.966;7.958;2023-08-08T08:59:18;97308.69;;;19.91;60.11
9281;BME280;4679;47.966;7.958;2023-08-08T09:01:21;97308.97;;;20.17;59.53
9281;BME280;4679;47.966;7.958;2023-08-08T09:03:23;97307.41;;;20.16;59.21
9281;BME280;4679;47.966;7.958;2023-08-08T09:05:25;97309.69;;;19.95;59.59
9281;BME280;4679;47.966;7.958;2023-08-08T09:07:28;97308.75;;;19.86;59.67
9281;BME280;4679;47.966;7.958;2023-08-08T09:09:33;97315.06;;;19.82;59.59
9281;BME280;4679;47.966;7.958;2023-08-08T09:11:34;97312.75;;;20.02;59.10
9281;BME280;4679;47.966;7.958;2023-08-08T09:13:37;97308.00;;;20.13;58.84
9281;BME280;4679;47.966;7.958;2023-08-08T09:15:40;97311.56;;;20.22;58.30
9281;BME280;4679;47.966;7.958;2023-08-08T09:17:42;97306.78;;;20.47;57.90
9281;BME280;4679;47.966;7.958;2023-08-08T09:19:45;97307.84;;;20.59;57.12
9281;BME280;4679;47.966;7.958;2023-08-08T09:21:48;97303.09;;;20.79;56.69
9281;BME280;4679;47.966;7.958;2023-08-08T09:23:50;97307.47;;;20.88;56.83
9281;BME280;4679;47.966;7.958;2023-08-08T09:25:52;97303.19;;;20.87;56.70
9281;BME280;4679;47.966;7.958;2023-08-08T09:27:55;97300.88;;;20.81;56.70
9281;BME280;4679;47.966;7.958;2023-08-08T09:29:57;97305.63;;;20.75;56.45
9281;BME280;4679;47.966;7.958;2023-08-08T09:31:59;97308.31;;;20.75;56.78
9281;BME280;4679;47.966;7.958;2023-08-08T09:34:02;97301.31;;;20.74;56.44
9281;BME280;4679;47.966;7.958;2023-08-08T09:36:05;97300.34;;;20.70;56.10
9281;BME280;4679;47.966;7.958;2023-08-08T09:38:08;97296.69;;;20.88;55.67
9281;BME280;4679;47.966;7.958;2023-08-08T09:40:10;97306.56;;;20.93;55.79
9281;BME280;4679;47.966;7.958;2023-08-08T09:42:13;97306.97;;;20.86;55.69
9281;BME280;4679;47.966;7.958;2023-08-08T09:44:15;97312.78;;;20.80;55.48
9281;BME280;4679;47.966;7.958;2023-08-08T09:46:15;97308.63;;;20.96;55.03
9281;BME280;4679;47.966;7.958;2023-08-08T12:27:42;97244.88;;;22.58;47.55
9281;BME280;4679;47.966;7.958;2023-08-08T12:29:44;97250.88;;;22.46;47.85
9281;BME280;4679;47.966;7.958;2023-08-08T12:31:46;97240.88;;;22.38;47.88
9281;BME280;4679;47.966;7.958;2023-08-08T12:33:47;97230.22;;;22.42;48.16
9281;BME280;4679;47.966;7.958;2023-08-08T12:35:50;97235.16;;;22.57;47.49
9281;BME280;4679;47.966;7.958;2023-08-08T12:37:51;97219.06;;;22.95;46.93
9281;BME280;4679;47.966;7.958;2023-08-08T12:39:53;97227.03;;;23.00;46.56
9281;BME280;4679;47.966;7.958;2023-08-08T12:41:55;97236.22;;;23.25;46.14
9281;BME280;4679;47.966;7.958;2023-08-08T12:43:58;97226.66;;;23.36;45.77
9281;BME280;4679;47.966;7.958;2023-08-08T12:45:59;97234.63;;;23.24;45.94
9281;BME280;4679;47.966;7.958;2023-08-08T12:48:01;97227.13;;;23.30;45.89
9281;BME280;4679;47.966;7.958;2023-08-08T12:50:02;97236.16;;;23.42;45.69
9281;BME280;4679;47.966;7.958;2023-08-08T12:52:04;97232.84;;;23.37;45.90
9281;BME280;4679;47.966;7.958;2023-08-08T12:54:06;97228.91;;;23.08;46.13
9281;BME280;4679;47.966;7.958;2023-08-08T12:56:08;97235.03;;;22.88;46.66
9281;BME280;4679;47.966;7.958;2023-08-08T12:58:09;97228.63;;;22.67;47.04
9281;BME280;4679;47.966;7.958;2023-08-08T13:00:13;97222.72;;;22.48;46.95
9281;BME280;4679;47.966;7.958;2023-08-08T13:02:15;97226.06;;;22.36;47.51
9281;BME280;4679;47.966;7.958;2023-08-08T13:04:17;97225.75;;;22.29;47.39
9281;BME280;4679;47.966;7.958;2023-08-08T13:06:18;97225.09;;;22.15;47.55
9281;BME280;4679;47.966;7.958;2023-08-08T13:08:19;97220.13;;;21.99;47.78
9281;BME280;4679;47.966;7.958;2023-08-08T13:10:21;97225.03;;;21.97;47.55
9281;BME280;4679;47.966;7.958;2023-08-08T13:12:23;97219.75;;;21.92;47.82
9281;BME280;4679;47.966;7.958;2023-08-08T13:14:24;97216.56;;;21.90;47.90
9281;BME280;4679;47.966;7.958;2023-08-08T13:16:26;97216.56;;;21.82;47.90
9281;BME280;4679;47.966;7.958;2023-08-08T13:18:28;97214.13;;;21.71;48.25
9281;BME280;4679;47.966;7.958;2023-08-08T13:20:30;97215.56;;;21.69;48.33
9281;BME280;4679;47.966;7.958;2023-08-08T13:22:32;97208.69;;;21.63;48.05
9281;BME280;4679;47.966;7.958;2023-08-08T13:24:33;97222.63;;;21.48;48.31
9281;BME280;4679;47.966;7.958;2023-08-08T13:26:35;97222.63;;;21.48;48.38
9281;BME280;4679;47.966;7.958;2023-08-08T13:28:37;97224.84;;;21.54;48.22
9281;BME280;4679;47.966;7.958;2023-08-08T13:30:39;97222.16;;;21.54;48.32
9281;BME280;4679;47.966;7.958;2023-08-08T13:32:43;97220.50;;;21.75;47.76
9281;BME280;4679;47.966;7.958;2023-08-08T13:34:44;97213.19;;;21.76;47.78
9281;BME280;4679;47.966;7.958;2023-08-08T13:36:46;97217.13;;;21.70;47.90
9281;BME280;4679;47.966;7.958;2023-08-08T13:38:48;97208.22;;;21.61;48.14
9281;BME280;4679;47.966;7.958;2023-08-08T13:40:49;97214.06;;;21.54;48.19
9281;BME280;4679;47.966;7.958;2023-08-08T13:42:51;97216.06;;;21.40;48.57
9281;BME280;4679;47.966;7.958;2023-08-08T13:44:53;97220.63;;;21.31;48.61
9281;BME280;4679;47.966;7.958;2023-08-08T13:46:55;97212.81;;;21.21;48.65
9281;BME280;4679;47.966;7.958;2023-08-08T13:48:59;97211.91;;;21.12;48.63
9281;BME280;4679;47.966;7.958;2023-08-08T13:51:01;97202.88;;;21.08;49.05
9281;BME280;4679;47.966;7.958;2023-08-08T13:53:03;97209.69;;;21.05;48.77
9281;BME280;4679;47.966;7.958;2023-08-08T13:55:05;97207.88;;;21.00;48.84
9281;BME280;4679;47.966;7.958;2023-08-08T13:57:07;97205.50;;;20.99;48.92
9281;BME280;4679;47.966;7.958;2023-08-08T13:59:09;97209.91;;;20.95;48.90
9281;BME280;4679;47.966;7.958;2023-08-08T14:01:11;97208.31;;;20.94;48.90
9281;BME280;4679;47.966;7.958;2023-08-08T14:03:12;97208.47;;;20.89;49.39
9281;BME280;4679;47.966;7.958;2023-08-08T14:05:15;97216.38;;;20.85;49.18
9281;BME280;4679;47.966;7.958;2023-08-08T14:07:17;97206.97;;;20.83;48.90
9281;BME280;4679;47.966;7.958;2023-08-08T14:09:19;97213.66;;;20.85;49.03
9281;BME280;4679;47.966;7.958;2023-08-08T14:11:21;97210.47;;;20.83;49.11
9281;BME280;4679;47.966;7.958;2023-08-08T14:13:22;97212.31;;;20.74;49.04
9281;BME280;4679;47.966;7.958;2023-08-08T14:15:24;97208.03;;;20.73;49.43
9281;BME280;4679;47.966;7.958;2023-08-08T14:17:25;97206.13;;;20.74;49.16
9281;BME280;4679;47.966;7.958;2023-08-08T14:19:27;97202.16;;;20.71;49.59
9281;BME280;4679;47.966;7.958;2023-08-08T14:21:31;97194.66;;;20.68;49.61
9281;BME280;4679;47.966;7.958;2023-08-08T14:23:33;97193.06;;;20.67;49.72
9281;BME280;4679;47.966;7.958;2023-08-08T14:25:35;97200.84;;;20.68;49.49
9281;BME280;4679;47.966;7.958;2023-08-08T14:27:37;97195.28;;;20.65;49.55
9281;BME280;4679;47.966;7.958;2023-08-08T14:29:38;97202.56;;;20.64;49.75
9281;BME280;4679;47.966;7.958;2023-08-08T14:31:40;97196.22;;;20.60;49.67
9281;BME280;4679;47.966;7.958;2023-08-08T14:33:43;97202.69;;;20.59;49.83
9281;BME280;4679;47.966;7.958;2023-08-08T14:35:45;97196.31;;;20.55;50.08
9281;BME280;4679;47.966;7.958;2023-08-08T14:37:49;97192.94;;;20.50;50.43
9281;BME280;4679;47.966;7.958;2023-08-08T14:39:51;97199.44;;;20.49;50.13
9281;BME280;4679;47.966;7.958;2023-08-08T14:41:52;97200.84;;;20.46;50.30
9281;BME280;4679;47.966;7.958;2023-08-08T14:43:54;97190.88;;;20.47;50.49
9281;BME280;4679;47.966;7.958;2023-08-08T14:45:57;97202.13;;;20.49;50.33
9281;BME280;4679;47.966;7.958;2023-08-08T14:47:59;97198.31;;;20.50;50.68
9281;BME280;4679;47.966;7.958;2023-08-08T14:50:00;97200.72;;;20.51;50.56
9281;BME280;4679;47.966;7.958;2023-08-08T14:52:03;97201.03;;;20.50;50.60
9281;BME280;4679;47.966;7.958;2023-08-08T14:54:06;97208.59;;;20.48;50.92
9281;BME280;4679;47.966;7.958;2023-08-08T14:56:08;97210.50;;;20.47;50.94
9281;BME280;4679;47.966;7.958;2023-08-08T14:58:10;97203.09;;;20.53;50.86
9281;BME280;4679;47.966;7.958;2023-08-08T15:00:13;97216.78;;;20.56;50.58
9281;BME280;4679;47.966;7.958;2023-08-08T15:02:15;97205.91;;;20.61;50.95
9281;BME280;4679;47.966;7.958;2023-08-08T15:04:18;97212.38;;;20.60;50.96
9281;BME280;4679;47.966;7.958;2023-08-08T15:06:21;97211.88;;;20.58;50.85
9281;BME280;4679;47.966;7.958;2023-08-08T15:08:23;97205.19;;;20.56;50.80
9281;BME280;4679;47.966;7.958;2023-08-08T15:10:27;97210.09;;;20.54;50.80
9281;BME280;4679;47.966;7.958;2023-08-08T15:12:29;97212.09;;;20.48;51.05
9281;BME280;4679;47.966;7.958;2023-08-08T15:14:30;97212.91;;;20.49;51.10
9281;BME280;4679;47.966;7.958;2023-08-08T15:16:33;97207.22;;;20.50;51.05
9281;BME280;4679;47.966;7.958;2023-08-08T15:18:35;97210.22;;;20.49;51.26
9281;BME280;4679;47.966;7.958;2023-08-08T15:20:37;97214.19;;;20.51;51.36
9281;BME280;4679;47.966;7.958;2023-08-08T15:22:39;97213.28;;;20.56;51.61
9281;BME280;4679;47.966;7.958;2023-08-08T15:24:41;97199.72;;;20.47;51.64
9281;BME280;4679;47.966;7.958;2023-08-08T15:26:45;97203.16;;;20.39;52.00
9281;BME280;4679;47.966;7.958;2023-08-08T15:28:48;97205.34;;;20.37;52.26
9281;BME280;4679;47.966;7.958;2023-08-08T15:30:50;97212.91;;;20.35;52.06
9281;BME280;4679;47.966;7.958;2023-08-08T15:32:53;97209.16;;;20.36;52.17
9281;BME280;4679;47.966;7.958;2023-08-08T15:34:55;97204.56;;;20.36;52.20
9281;BME280;4679;47.966;7.958;2023-08-08T15:36:57;97208.31;;;20.35;52.35
9281;BME280;4679;47.966;7.958;2023-08-08T15:38:59;97201.34;;;20.34;52.32
9281;BME280;4679;47.966;7.958;2023-08-08T15:41:02;97203.16;;;20.39;52.34
9281;BME280;4679;47.966;7.958;2023-08-08T15:43:05;97194.78;;;20.41;52.40
9281;BME280;4679;47.966;7.958;2023-08-08T15:45:08;97206.84;;;20.43;52.18
9281;BME280;4679;47.966;7.958;2023-08-08T15:47:11;97197.66;;;20.44;52.60
9281;BME280;4679;47.966;7.958;2023-08-08T15:49:13;97200.84;;;20.46;52.74
9281;BME280;4679;47.966;7.958;2023-08-08T15:51:16;97197.81;;;20.48;52.67
9281;BME280;4679;47.966;7.958;2023-08-08T15:53:18;97198.97;;;20.47;52.92
9281;BME280;4679;47.966;7.958;2023-08-08T15:55:20;97203.06;;;20.44;52.91
9281;BME280;4679;47.966;7.958;2023-08-08T15:57:22;97193.06;;;20.45;53.03
9281;BME280;4679;47.966;7.958;2023-08-08T15:59:26;97191.16;;;20.45;53.06
9281;BME280;4679;47.966;7.958;2023-08-08T16:01:28;97197.53;;;20.49;52.77
9281;BME280;4679;47.966;7.958;2023-08-08T16:03:30;97205.13;;;20.47;52.78
9281;BME280;4679;47.966;7.958;2023-08-08T16:05:33;97193.56;;;20.47;53.02
9281;BME280;4679;47.966;7.958;2023-08-08T16:07:36;97193.97;;;20.40;53.09
9281;BME280;4679;47.966;7.958;2023-08-08T16:09:38;97194.84;;;20.35;53.30
9281;BME280;4679;47.966;7.958;2023-08-08T16:11:40;97191.88;;;20.37;53.42
9281;BME280;4679;47.966;7.958;2023-08-08T16:13:42;97198.66;;;20.34;53.50
9281;BME280;4679;47.966;7.958;2023-08-08T16:15:46;97194.97;;;20.30;53.50
9281;BME280;4679;47.966;7.958;2023-08-08T16:17:48;97201.47;;;20.29;53.42
9281;BME280;4679;47.966;7.958;2023-08-08T16:19:50;97196.69;;;20.26;53.69
9281;BME280;4679;47.966;7.958;2023-08-08T16:21:52;97198.09;;;20.24;53.94
9281;BME280;4679;47.966;7.958;2023-08-08T16:23:54;97194.28;;;20.25;53.79
9281;BME280;4679;47.966;7.958;2023-08-08T16:25:56;97201.56;;;20.24;53.98
9281;BME280;4679;47.966;7.958;2023-08-08T16:27:58;97191.09;;;20.23;53.44
9281;BME280;4679;47.966;7.958;2023-08-08T16:30:01;97201.38;;;20.21;53.97
9281;BME280;4679;47.966;7.958;2023-08-08T16:32:05;97196.78;;;20.21;54.14
9281;BME280;4679;47.966;7.958;2023-08-08T16:34:08;97205.97;;;20.20;54.29
9281;BME280;4679;47.966;7.958;2023-08-08T16:36:10;97197.69;;;20.17;54.26
9281;BME280;4679;47.966;7.958;2023-08-08T16:38:13;97197.69;;;20.17;54.05
9281;BME280;4679;47.966;7.958;2023-08-08T16:40:15;97198.97;;;20.19;53.92
9281;BME280;4679;47.966;7.958;2023-08-08T16:42:17;97198.69;;;20.21;54.23
9281;BME280;4679;47.966;7.958;2023-08-08T16:44:19;97196.19;;;20.24;53.88
9281;BME280;4679;47.966;7.958;2023-08-08T16:46:21;97195.38;;;20.24;53.98
9281;BME280;4679;47.966;7.958;2023-08-08T16:48:25;97192.69;;;20.24;54.03
9281;BME280;4679;47.966;7.958;2023-08-08T16:50:26;97198.09;;;20.24;54.09
9281;BME280;4679;47.966;7.958;2023-08-08T16:52:28;97202.38;;;20.25;53.94
9281;BME280;4679;47.966;7.958;2023-08-08T16:54:29;97205.38;;;20.23;53.83
9281;BME280;4679;47.966;7.958;2023-08-08T16:56:31;97200.78;;;20.24;53.99
9281;BME280;4679;47.966;7.958;2023-08-08T16:58:32;97212.25;;;20.29;53.96
9281;BME280;4679;47.966;7.958;2023-08-08T17:00:34;97216.03;;;20.28;53.77
9281;BME280;4679;47.966;7.958;2023-08-08T17:02:36;97221.53;;;20.23;54.06
9281;BME280;4679;47.966;7.958;2023-08-08T17:04:39;97210.75;;;20.23;53.86
9281;BME280;4679;47.966;7.958;2023-08-08T17:06:41;97212.84;;;20.26;53.98
9281;BME280;4679;47.966;7.958;2023-08-08T17:08:43;97217.34;;;20.31;53.80
9281;BME280;4679;47.966;7.958;2023-08-08T17:10:46;97220.50;;;20.33;53.54
9281;BME280;4679;47.966;7.958;2023-08-08T17:12:48;97217.34;;;20.31;53.62
9281;BME280;4679;47.966;7.958;2023-08-08T17:14:49;97211.75;;;20.27;53.91
9281;BME280;4679;47.966;7.958;2023-08-08T17:16:51;97206.78;;;20.21;54.36
9281;BME280;4679;47.966;7.958;2023-08-08T17:18:53;97214.19;;;20.15;54.39
9281;BME280;4679;47.966;7.958;2023-08-08T17:20:56;97222.06;;;20.12;54.95
9281;BME280;4679;47.966;7.958;2023-08-08T17:22:58;97216.47;;;20.08;54.92
9281;BME280;4679;47.966;7.958;2023-08-08T17:25:00;97208.41;;;20.08;54.92
9281;BME280;4679;47.966;7.958;2023-08-08T17:27:01;97201.22;;;20.03;55.13
9281;BME280;4679;47.966;7.958;2023-08-08T17:29:03;97203.09;;;20.03;55.33
9281;BME280;4679;47.966;7.958;2023-08-08T17:31:05;97210.38;;;20.02;55.50
9281;BME280;4679;47.966;7.958;2023-08-08T17:33:07;97208.03;;;20.01;55.63
9281;BME280;4679;47.966;7.958;2023-08-08T17:35:09;97206.09;;;20.01;55.65
9281;BME280;4679;47.966;7.958;2023-08-08T17:37:11;97205.44;;;19.96;56.19
9281;BME280;4679;47.966;7.958;2023-08-08T17:39:13;97211.41;;;19.93;56.32
9281;BME280;4679;47.966;7.958;2023-08-08T17:41:15;97221.38;;;19.92;56.36
9281;BME280;4679;47.966;7.958;2023-08-08T17:43:17;97224.09;;;19.92;56.22
9281;BME280;4679;47.966;7.958;2023-08-08T17:45:18;97222.28;;;19.88;56.69
9281;BME280;4679;47.966;7.958;2023-08-08T17:47:20;97223.38;;;19.87;56.47
9281;BME280;4679;47.966;7.958;2023-08-08T17:49:22;97222.91;;;19.85;56.71
9281;BME280;4679;47.966;7.958;2023-08-08T17:51:24;97218.41;;;19.80;56.92
9281;BME280;4679;47.966;7.958;2023-08-08T17:53:27;97218.72;;;19.79;57.09
9281;BME280;4679;47.966;7.958;2023-08-08T17:55:29;97225.78;;;19.75;57.34
9281;BME280;4679;47.966;7.958;2023-08-08T17:57:31;97230.97;;;19.71;57.44
9281;BME280;4679;47.966;7.958;2023-08-08T17:59:32;97232.56;;;19.72;57.42
9281;BME280;4679;47.966;7.958;2023-08-08T18:01:34;97229.69;;;19.69;57.87
9281;BME280;4679;47.966;7.958;2023-08-08T18:03:36;97227.09;;;19.63;57.98
9281;BME280;4679;47.966;7.958;2023-08-08T18:05:38;97232.56;;;19.58;57.94
9281;BME280;4679;47.966;7.958;2023-08-08T18:07:39;97234.28;;;19.54;58.04
9281;BME280;4679;47.966;7.958;2023-08-08T18:09:42;97227.63;;;19.47;58.24
9281;BME280;4679;47.966;7.958;2023-08-08T18:11:45;97232.63;;;19.40;58.57
9281;BME280;4679;47.966;7.958;2023-08-08T18:13:47;97233.00;;;19.33;58.71
9281;BME280;4679;47.966;7.958;2023-08-08T18:15:49;97230.97;;;19.25;59.02
9281;BME280;4679;47.966;7.958;2023-08-08T18:17:51;97236.84;;;19.13;59.07
9281;BME280;4679;47.966;7.958;2023-08-08T18:19:52;97233.47;;;19.08;59.30
9281;BME280;4679;47.966;7.958;2023-08-08T18:21:54;97235.66;;;19.06;59.37
9281;BME280;4679;47.966;7.958;2023-08-08T18:23:57;97242.69;;;19.02;59.52
9281;BME280;4679;47.966;7.958;2023-08-08T18:26:00;97239.78;;;18.98;59.56
9281;BME280;4679;47.966;7.958;2023-08-08T18:28:03;97233.63;;;18.97;59.92
9281;BME280;4679;47.966;7.958;2023-08-08T18:30:07;97233.63;;;18.97;59.68
9281;BME280;4679;47.966;7.958;2023-08-08T18:32:09;97230.75;;;18.94;59.69
9281;BME280;4679;47.966;7.958;2023-08-08T18:34:11;97222.03;;;18.83;59.99
9281;BME280;4679;47.966;7.958;2023-08-08T18:36:13;97219.72;;;18.77;60.01
9281;BME280;4679;47.966;7.958;2023-08-08T18:38:15;97216.81;;;18.73;60.24
9281;BME280;4679;47.966;7.958;2023-08-08T18:40:16;97217.91;;;18.72;60.33
9281;BME280;4679;47.966;7.958;2023-08-08T18:42:22;97212.19;;;18.60;61.05
9281;BME280;4679;47.966;7.958;2023-08-08T18:44:24;97218.19;;;18.52;61.26
9281;BME280;4679;47.966;7.958;2023-08-08T18:46:25;97206.84;;;18.36;61.90
9281;BME280;4679;47.966;7.958;2023-08-08T18:48:27;97213.13;;;18.32;61.96
9281;BME280;4679;47.966;7.958;2023-08-08T18:50:29;97212.69;;;18.24;62.03
9281;BME280;4679;47.966;7.958;2023-08-08T18:52:30;97209.56;;;18.17;62.21
9281;BME280;4679;47.966;7.958;2023-08-08T18:54:32;97207.16;;;18.16;62.56
9281;BME280;4679;47.966;7.958;2023-08-08T18:56:34;97209.09;;;18.10;62.33
9281;BME280;4679;47.966;7.958;2023-08-08T18:58:37;97216.22;;;18.01;62.54
9281;BME280;4679;47.966;7.958;2023-08-08T19:00:39;97229.19;;;17.94;62.70
9281;BME280;4679;47.966;7.958;2023-08-08T19:02:40;97224.91;;;17.93;62.88
9281;BME280;4679;47.966;7.958;2023-08-08T19:04:42;97222.50;;;17.91;62.99
9281;BME280;4679;47.966;7.958;2023-08-08T19:06:44;97228.25;;;17.85;62.98
9281;BME280;4679;47.966;7.958;2023-08-08T19:08:45;97219.44;;;17.79;62.98
9281;BME280;4679;47.966;7.958;2023-08-08T19:10:49;97220.09;;;17.71;62.88
9281;BME280;4679;47.966;7.958;2023-08-08T19:12:50;97225.25;;;17.63;63.12
9281;BME280;4679;47.966;7.958;2023-08-08T19:14:53;97217.25;;;17.57;63.29
9281;BME280;4679;47.966;7.958;2023-08-08T19:16:54;97227.28;;;17.47;63.61
9281;BME280;4679;47.966;7.958;2023-08-08T19:18:55;97227.41;;;17.37;63.61
9281;BME280;4679;47.966;7.958;2023-08-08T19:20:57;97233.66;;;17.27;64.12
9281;BME280;4679;47.966;7.958;2023-08-08T19:22:58;97230.56;;;17.15;64.46
9281;BME280;4679;47.966;7.958;2023-08-08T19:25:00;97237.63;;;17.06;64.56
9281;BME280;4679;47.966;7.958;2023-08-08T19:27:02;97243.22;;;17.09;64.22
9281;BME280;4679;47.966;7.958;2023-08-08T19:29:04;97239.78;;;17.04;64.28
9281;BME280;4679;47.966;7.958;2023-08-08T19:31:07;97244.19;;;16.90;64.65
9281;BME280;4679;47.966;7.958;2023-08-08T19:33:08;97239.41;;;16.86;65.05
9281;BME280;4679;47.966;7.958;2023-08-08T19:35:10;97241.09;;;16.77;65.63
9281;BME280;4679;47.966;7.958;2023-08-08T19:37:12;97244.03;;;16.76;65.12
9281;BME280;4679;47.966;7.958;2023-08-08T19:39:13;97248.38;;;16.67;65.63
9281;BME280;4679;47.966;7.958;2023-08-08T19:41:15;97245.97;;;16.65;65.35
9281;BME280;4679;47.966;7.958;2023-08-08T19:43:16;97240.69;;;16.50;65.67
9281;BME280;4679;47.966;7.958;2023-08-08T19:45:18;97245.56;;;16.48;66.47
9281;BME280;4679;47.966;7.958;2023-08-08T19:47:21;97238.06;;;16.45;66.67
9281;BME280;4679;47.966;7.958;2023-08-08T19:49:23;97246.94;;;16.35;66.85
9281;BME280;4679;47.966;7.958;2023-08-08T19:51:25;97246.50;;;16.23;66.72
9281;BME280;4679;47.966;7.958;2023-08-08T19:53:28;97250.28;;;16.17;67.03
9281;BME280;4679;47.966;7.958;2023-08-08T19:55:29;97245.69;;;16.23;66.72
9281;BME280;4679;47.966;7.958;2023-08-08T19:57:31;97241.91;;;16.29;67.02
9281;BME280;4679;47.966;7.958;2023-08-08T19:59:33;97239.25;;;16.29;66.92
9281;BME280;4679;47.966;7.958;2023-08-08T20:01:34;97235.75;;;16.28;66.81
9281;BME280;4679;47.966;7.958;2023-08-08T20:03:37;97234.69;;;16.29;66.79
9281;BME280;4679;47.966;7.958;2023-08-08T20:05:39;97232.81;;;16.30;67.09
9281;BME280;4679;47.966;7.958;2023-08-08T20:07:41;97237.34;;;16.34;67.12
9281;BME280;4679;47.966;7.958;2023-08-08T20:09:42;97240.28;;;16.33;66.95